sensor_id;sensor_type;location;lat;lon;timestamp;P1;durP1;ratioP1;P2;durP2;ratioP2
68792;SDS011;55778;54.346;10.210;2023-07-29T00:01:47;6.75;;;4.25;;
68792;SDS011;55778;54.346;10.210;2023-07-29T00:04:14;7.45;;;4.47;;
68792;SDS011;55778;54.346;10.210;2023-07-29T00:06:39;8.18;;;4.15;;
68792;SDS011;55778;54.346;10.210;2023-07-29T00:09:06;5.50;;;3.90;;
68792;SDS011;55778;54.346;10.210;2023-07-29T00:11:31;7.55;;;4.43;;
68792;SDS011;55778;54.346;10.210;2023-07-29T00:13:59;6.93;;;4.05;;
68792;SDS011;55778;54.346;10.210;2023-07-29T00:16:25;7.60;;;4.05;;
68792;SDS011;55778;54.346;10.210;2023-07-29T00:18:51;6.05;;;4.15;;
68792;SDS011;55778;54.346;10.210;2023-07-29T00:21:16;6.43;;;3.80;;
68792;SDS011;55778;54.346;10.210;2023-07-29T00:23:42;7.10;;;4.13;;
68792;SDS011;55778;54.346;10.210;2023-07-29T00:26:07;6.68;;;3.85;;
68792;SDS011;55778;54.346;10.210;2023-07-29T00:28:32;7.13;;;4.03;;
68792;SDS011;55778;54.346;10.210;2023-07-29T00:30:58;6.32;;;3.97;;
68792;SDS011;55778;54.346;10.210;2023-07-29T00:33:24;8.27;;;4.35;;
68792;SDS011;55778;54.346;10.210;2023-07-29T00:35:49;7.60;;;4.10;;
68792;SDS011;55778;54.346;10.210;2023-07-29T00:38:15;9.07;;;4.70;;
68792;SDS011;55778;54.346;10.210;2023-07-29T00:40:40;8.63;;;5.00;;
68792;SDS011;55778;54.346;10.210;2023-07-29T00:43:06;8.23;;;4.78;;
68792;SDS011;55778;54.346;10.210;2023-07-29T00:45:31;9.25;;;4.90;;
68792;SDS011;55778;54.346;10.210;2023-07-29T00:47:58;8.45;;;4.90;;
68792;SDS011;55778;54.346;10.210;2023-07-29T00:50:24;8.95;;;5.32;;
68792;SDS011;55778;54.346;10.210;2023-07-29T00:52:53;7.80;;;4.95;;
68792;SDS011;55778;54.346;10.210;2023-07-29T00:55:19;7.35;;;4.50;;
68792;SDS011;55778;54.346;10.210;2023-07-29T00:57:44;8.52;;;4.50;;
68792;SDS011;55778;54.346;10.210;2023-07-29T01:00:13;7.80;;;4.20;;
68792;SDS011;55778;54.346;10.210;2023-07-29T01:02:39;6.40;;;3.92;;
68792;SDS011;55778;54.346;10.210;2023-07-29T01:05:05;6.47;;;4.20;;
68792;SDS011;55778;54.346;10.210;2023-07-29T01:14:04;6.72;;;4.20;;
68792;SDS011;55778;54.346;10.210;2023-07-29T01:19:05;5.25;;;3.63;;
68792;SDS011;55778;54.346;10.210;2023-07-29T01:21:35;6.40;;;4.07;;
68792;SDS011;55778;54.346;10.210;2023-07-29T01:24:01;7.75;;;3.97;;
68792;SDS011;55778;54.346;10.210;2023-07-29T01:26:27;11.88;;;4.15;;
68792;SDS011;55778;54.346;10.210;2023-07-29T01:28:54;7.38;;;4.25;;
68792;SDS011;55778;54.346;10.210;2023-07-29T01:31:34;8.02;;;4.57;;
68792;SDS011;55778;54.346;10.210;2023-07-29T01:34:26;9.25;;;4.72;;
68792;SDS011;55778;54.346;10.210;2023-07-29T01:39:24;10.95;;;4.68;;
68792;SDS011;55778;54.346;10.210;2023-07-29T01:41:54;7.82;;;4.30;;
68792;SDS011;55778;54.346;10.210;2023-07-29T01:44:19;6.60;;;4.03;;
68792;SDS011;55778;54.346;10.210;2023-07-29T01:46:45;6.45;;;3.97;;
68792;SDS011;55778;54.346;10.210;2023-07-29T01:49:11;6.68;;;3.90;;
68792;SDS011;55778;54.346;10.210;2023-07-29T01:51:37;7.07;;;3.85;;
68792;SDS011;55778;54.346;10.210;2023-07-29T01:54:03;5.65;;;3.95;;
68792;SDS011;55778;54.346;10.210;2023-07-29T01:56:28;6.15;;;3.90;;
68792;SDS011;55778;54.346;10.210;2023-07-29T01:58:53;8.65;;;4.18;;
68792;SDS011;55778;54.346;10.210;2023-07-29T02:01:19;8.40;;;4.10;;
68792;SDS011;55778;54.346;10.210;2023-07-29T02:03:44;7.90;;;4.30;;
68792;SDS011;55778;54.346;10.210;2023-07-29T02:06:10;10.23;;;4.80;;
68792;SDS011;55778;54.346;10.210;2023-07-29T02:08:35;10.50;;;4.70;;
68792;SDS011;55778;54.346;10.210;2023-07-29T02:11:00;9.27;;;4.95;;
68792;SDS011;55778;54.346;10.210;2023-07-29T02:13:26;11.30;;;5.32;;
68792;SDS011;55778;54.346;10.210;2023-07-29T02:15:51;12.75;;;5.13;;
68792;SDS011;55778;54.346;10.210;2023-07-29T02:18:17;11.93;;;4.88;;
68792;SDS011;55778;54.346;10.210;2023-07-29T02:20:42;11.88;;;5.00;;
68792;SDS011;55778;54.346;10.210;2023-07-29T02:23:14;10.45;;;4.88;;
68792;SDS011;55778;54.346;10.210;2023-07-29T02:25:39;9.63;;;4.93;;
68792;SDS011;55778;54.346;10.210;2023-07-29T02:28:05;8.43;;;4.68;;
68792;SDS011;55778;54.346;10.210;2023-07-29T02:30:30;8.20;;;4.30;;
68792;SDS011;55778;54.346;10.210;2023-07-29T02:32:55;8.82;;;4.28;;
68792;SDS011;55778;54.346;10.210;2023-07-29T02:35:21;6.63;;;3.85;;
68792;SDS011;55778;54.346;10.210;2023-07-29T02:37:46;9.70;;;4.13;;
68792;SDS011;55778;54.346;10.210;2023-07-29T02:40:11;7.28;;;3.97;;
68792;SDS011;55778;54.346;10.210;2023-07-29T02:42:37;8.50;;;4.10;;
68792;SDS011;55778;54.346;10.210;2023-07-29T02:45:03;7.22;;;4.18;;
68792;SDS011;55778;54.346;10.210;2023-07-29T02:47:29;8.48;;;4.53;;
68792;SDS011;55778;54.346;10.210;2023-07-29T02:49:54;7.43;;;4.43;;
68792;SDS011;55778;54.346;10.210;2023-07-29T02:52:19;22.27;;;14.02;;
68792;SDS011;55778;54.346;10.210;2023-07-29T02:54:45;10.43;;;5.63;;
68792;SDS011;55778;54.346;10.210;2023-07-29T02:57:10;7.88;;;4.60;;
68792;SDS011;55778;54.346;10.210;2023-07-29T02:59:36;8.90;;;4.10;;
68792;SDS011;55778;54.346;10.210;2023-07-29T03:02:01;7.63;;;4.43;;
68792;SDS011;55778;54.346;10.210;2023-07-29T03:04:27;10.40;;;5.10;;
68792;SDS011;55778;54.346;10.210;2023-07-29T03:06:52;10.35;;;5.43;;
68792;SDS011;55778;54.346;10.210;2023-07-29T03:09:18;7.30;;;3.80;;
68792;SDS011;55778;54.346;10.210;2023-07-29T03:11:43;7.72;;;4.50;;
68792;SDS011;55778;54.346;10.210;2023-07-29T03:14:09;6.63;;;3.90;;
68792;SDS011;55778;54.346;10.210;2023-07-29T03:16:34;14.20;;;8.48;;
68792;SDS011;55778;54.346;10.210;2023-07-29T03:19:00;7.32;;;3.80;;
68792;SDS011;55778;54.346;10.210;2023-07-29T03:21:25;7.57;;;4.38;;
68792;SDS011;55778;54.346;10.210;2023-07-29T03:23:50;8.68;;;4.25;;
68792;SDS011;55778;54.346;10.210;2023-07-29T03:26:16;8.27;;;4.43;;
68792;SDS011;55778;54.346;10.210;2023-07-29T03:28:42;8.73;;;4.50;;
68792;SDS011;55778;54.346;10.210;2023-07-29T03:31:08;7.50;;;4.35;;
68792;SDS011;55778;54.346;10.210;2023-07-29T03:33:34;8.00;;;4.40;;
68792;SDS011;55778;54.346;10.210;2023-07-29T03:36:00;8.90;;;4.88;;
68792;SDS011;55778;54.346;10.210;2023-07-29T03:38:25;8.15;;;4.28;;
68792;SDS011;55778;54.346;10.210;2023-07-29T03:40:51;9.15;;;5.22;;
68792;SDS011;55778;54.346;10.210;2023-07-29T03:43:16;9.07;;;4.90;;
68792;SDS011;55778;54.346;10.210;2023-07-29T03:45:42;9.10;;;4.32;;
68792;SDS011;55778;54.346;10.210;2023-07-29T03:48:07;10.95;;;5.80;;
68792;SDS011;55778;54.346;10.210;2023-07-29T03:50:33;15.35;;;8.45;;
68792;SDS011;55778;54.346;10.210;2023-07-29T03:53:00;14.77;;;7.25;;
68792;SDS011;55778;54.346;10.210;2023-07-29T03:55:26;13.52;;;6.80;;
68792;SDS011;55778;54.346;10.210;2023-07-29T03:57:51;9.23;;;4.97;;
68792;SDS011;55778;54.346;10.210;2023-07-29T04:00:18;10.30;;;5.28;;
68792;SDS011;55778;54.346;10.210;2023-07-29T04:02:43;10.93;;;5.47;;
68792;SDS011;55778;54.346;10.210;2023-07-29T04:05:10;12.02;;;5.72;;
68792;SDS011;55778;54.346;10.210;2023-07-29T04:07:36;11.75;;;5.93;;
68792;SDS011;55778;54.346;10.210;2023-07-29T04:10:02;23.20;;;11.40;;
68792;SDS011;55778;54.346;10.210;2023-07-29T04:12:28;14.48;;;7.45;;
68792;SDS011;55778;54.346;10.210;2023-07-29T04:14:53;22.38;;;12.18;;
68792;SDS011;55778;54.346;10.210;2023-07-29T04:17:19;16.00;;;7.22;;
68792;SDS011;55778;54.346;10.210;2023-07-29T04:19:44;17.13;;;7.60;;
68792;SDS011;55778;54.346;10.210;2023-07-29T04:22:11;16.40;;;6.95;;
68792;SDS011;55778;54.346;10.210;2023-07-29T04:24:37;18.17;;;7.53;;
68792;SDS011;55778;54.346;10.210;2023-07-29T04:27:03;15.30;;;6.50;;
68792;SDS011;55778;54.346;10.210;2023-07-29T04:29:28;16.33;;;7.38;;
68792;SDS011;55778;54.346;10.210;2023-07-29T04:31:54;19.45;;;8.05;;
68792;SDS011;55778;54.346;10.210;2023-07-29T04:34:19;21.48;;;8.38;;
68792;SDS011;55778;54.346;10.210;2023-07-29T04:36:45;20.33;;;8.13;;
68792;SDS011;55778;54.346;10.210;2023-07-29T04:39:11;25.42;;;9.40;;
68792;SDS011;55778;54.346;10.210;2023-07-29T04:41:37;20.58;;;8.27;;
68792;SDS011;55778;54.346;10.210;2023-07-29T04:44:02;26.77;;;8.80;;
68792;SDS011;55778;54.346;10.210;2023-07-29T04:46:28;49.92;;;9.85;;
68792;SDS011;55778;54.346;10.210;2023-07-29T04:48:53;80.22;;;11.27;;
68792;SDS011;55778;54.346;10.210;2023-07-29T04:51:18;26.58;;;13.15;;
68792;SDS011;55778;54.346;10.210;2023-07-29T04:53:44;29.67;;;12.73;;
68792;SDS011;55778;54.346;10.210;2023-07-29T04:56:10;24.77;;;10.05;;
68792;SDS011;55778;54.346;10.210;2023-07-29T04:58:35;42.08;;;21.48;;
68792;SDS011;55778;54.346;10.210;2023-07-29T05:01:03;29.85;;;9.80;;
68792;SDS011;55778;54.346;10.210;2023-07-29T05:03:29;21.98;;;8.43;;
68792;SDS011;55778;54.346;10.210;2023-07-29T05:05:55;24.98;;;8.40;;
68792;SDS011;55778;54.346;10.210;2023-07-29T05:08:21;24.92;;;8.57;;
68792;SDS011;55778;54.346;10.210;2023-07-29T05:10:50;22.65;;;9.30;;
68792;SDS011;55778;54.346;10.210;2023-07-29T05:15:42;22.77;;;8.55;;
68792;SDS011;55778;54.346;10.210;2023-07-29T05:18:07;43.17;;;22.58;;
68792;SDS011;55778;54.346;10.210;2023-07-29T05:20:32;22.25;;;8.05;;
68792;SDS011;55778;54.346;10.210;2023-07-29T05:22:58;19.08;;;7.90;;
68792;SDS011;55778;54.346;10.210;2023-07-29T05:25:23;17.10;;;7.25;;
68792;SDS011;55778;54.346;10.210;2023-07-29T05:27:48;16.50;;;6.57;;
68792;SDS011;55778;54.346;10.210;2023-07-29T05:30:14;14.02;;;6.60;;
68792;SDS011;55778;54.346;10.210;2023-07-29T05:32:39;13.20;;;5.80;;
68792;SDS011;55778;54.346;10.210;2023-07-29T05:35:05;12.25;;;6.22;;
68792;SDS011;55778;54.346;10.210;2023-07-29T05:37:31;12.98;;;6.57;;
68792;SDS011;55778;54.346;10.210;2023-07-29T05:39:56;11.45;;;6.07;;
68792;SDS011;55778;54.346;10.210;2023-07-29T05:42:21;15.25;;;6.63;;
68792;SDS011;55778;54.346;10.210;2023-07-29T05:44:47;14.23;;;7.32;;
68792;SDS011;55778;54.346;10.210;2023-07-29T05:47:12;13.75;;;7.35;;
68792;SDS011;55778;54.346;10.210;2023-07-29T05:49:37;14.60;;;7.15;;
68792;SDS011;55778;54.346;10.210;2023-07-29T05:52:03;24.15;;;13.90;;
68792;SDS011;55778;54.346;10.210;2023-07-29T05:54:28;26.13;;;13.55;;
68792;SDS011;55778;54.346;10.210;2023-07-29T05:56:54;19.05;;;11.30;;
68792;SDS011;55778;54.346;10.210;2023-07-29T05:59:19;12.52;;;6.40;;
68792;SDS011;55778;54.346;10.210;2023-07-29T06:01:44;13.70;;;6.43;;
68792;SDS011;55778;54.346;10.210;2023-07-29T06:04:10;11.73;;;6.53;;
68792;SDS011;55778;54.346;10.210;2023-07-29T06:06:35;12.23;;;6.43;;
68792;SDS011;55778;54.346;10.210;2023-07-29T06:09:00;14.68;;;6.70;;
68792;SDS011;55778;54.346;10.210;2023-07-29T06:11:26;14.63;;;6.90;;
68792;SDS011;55778;54.346;10.210;2023-07-29T06:13:51;12.65;;;6.85;;
68792;SDS011;55778;54.346;10.210;2023-07-29T06:16:17;21.58;;;13.65;;
68792;SDS011;55778;54.346;10.210;2023-07-29T06:18:42;12.75;;;7.03;;
68792;SDS011;55778;54.346;10.210;2023-07-29T06:21:07;11.65;;;6.15;;
68792;SDS011;55778;54.346;10.210;2023-07-29T06:23:36;9.65;;;6.13;;
68792;SDS011;55778;54.346;10.210;2023-07-29T06:26:01;10.02;;;5.97;;
68792;SDS011;55778;54.346;10.210;2023-07-29T06:28:27;10.82;;;5.63;;
68792;SDS011;55778;54.346;10.210;2023-07-29T06:30:52;10.32;;;6.20;;
68792;SDS011;55778;54.346;10.210;2023-07-29T06:33:18;11.80;;;6.82;;
68792;SDS011;55778;54.346;10.210;2023-07-29T06:35:43;9.50;;;5.47;;
68792;SDS011;55778;54.346;10.210;2023-07-29T06:38:09;7.25;;;5.05;;
68792;SDS011;55778;54.346;10.210;2023-07-29T06:40:34;6.90;;;4.70;;
68792;SDS011;55778;54.346;10.210;2023-07-29T06:42:59;7.38;;;4.78;;
68792;SDS011;55778;54.346;10.210;2023-07-29T06:45:25;6.90;;;4.70;;
68792;SDS011;55778;54.346;10.210;2023-07-29T06:47:51;7.93;;;5.43;;
68792;SDS011;55778;54.346;10.210;2023-07-29T06:50:16;8.50;;;5.10;;
68792;SDS011;55778;54.346;10.210;2023-07-29T06:52:42;8.57;;;5.35;;
68792;SDS011;55778;54.346;10.210;2023-07-29T06:55:07;9.35;;;5.70;;
68792;SDS011;55778;54.346;10.210;2023-07-29T06:57:33;9.38;;;5.97;;
68792;SDS011;55778;54.346;10.210;2023-07-29T06:59:58;7.85;;;5.95;;
68792;SDS011;55778;54.346;10.210;2023-07-29T07:02:24;7.93;;;6.10;;
68792;SDS011;55778;54.346;10.210;2023-07-29T07:04:49;10.48;;;6.30;;
68792;SDS011;55778;54.346;10.210;2023-07-29T07:07:15;11.00;;;7.20;;
68792;SDS011;55778;54.346;10.210;2023-07-29T07:09:40;10.50;;;7.20;;
68792;SDS011;55778;54.346;10.210;2023-07-29T07:12:06;12.20;;;7.68;;
68792;SDS011;55778;54.346;10.210;2023-07-29T07:14:31;16.73;;;11.55;;
68792;SDS011;55778;54.346;10.210;2023-07-29T07:16:57;11.13;;;7.15;;
68792;SDS011;55778;54.346;10.210;2023-07-29T07:19:22;11.95;;;7.43;;
68792;SDS011;55778;54.346;10.210;2023-07-29T07:21:48;12.45;;;8.27;;
68792;SDS011;55778;54.346;10.210;2023-07-29T07:24:13;14.15;;;8.90;;
68792;SDS011;55778;54.346;10.210;2023-07-29T07:26:38;17.63;;;10.77;;
68792;SDS011;55778;54.346;10.210;2023-07-29T07:29:04;13.93;;;8.35;;
68792;SDS011;55778;54.346;10.210;2023-07-29T07:31:32;14.13;;;9.88;;
68792;SDS011;55778;54.346;10.210;2023-07-29T07:33:58;16.75;;;11.75;;
68792;SDS011;55778;54.346;10.210;2023-07-29T07:36:24;14.98;;;9.45;;
68792;SDS011;55778;54.346;10.210;2023-07-29T07:38:49;14.57;;;9.43;;
68792;SDS011;55778;54.346;10.210;2023-07-29T07:41:15;14.18;;;9.45;;
68792;SDS011;55778;54.346;10.210;2023-07-29T07:43:40;15.70;;;10.10;;
68792;SDS011;55778;54.346;10.210;2023-07-29T07:46:05;14.73;;;9.73;;
68792;SDS011;55778;54.346;10.210;2023-07-29T07:48:31;15.90;;;10.35;;
68792;SDS011;55778;54.346;10.210;2023-07-29T07:50:58;13.23;;;9.75;;
68792;SDS011;55778;54.346;10.210;2023-07-29T07:53:23;16.08;;;9.95;;
68792;SDS011;55778;54.346;10.210;2023-07-29T07:55:50;17.52;;;11.65;;
68792;SDS011;55778;54.346;10.210;2023-07-29T07:58:16;14.20;;;9.68;;
68792;SDS011;55778;54.346;10.210;2023-07-29T08:00:41;15.10;;;9.88;;
68792;SDS011;55778;54.346;10.210;2023-07-29T08:03:07;16.88;;;10.88;;
68792;SDS011;55778;54.346;10.210;2023-07-29T08:05:33;12.68;;;9.13;;
68792;SDS011;55778;54.346;10.210;2023-07-29T08:08:02;15.90;;;10.05;;
68792;SDS011;55778;54.346;10.210;2023-07-29T08:10:27;15.20;;;9.77;;
68792;SDS011;55778;54.346;10.210;2023-07-29T08:12:52;12.90;;;9.40;;
68792;SDS011;55778;54.346;10.210;2023-07-29T08:15:18;12.80;;;9.02;;
68792;SDS011;55778;54.346;10.210;2023-07-29T08:17:43;12.52;;;8.57;;
68792;SDS011;55778;54.346;10.210;2023-07-29T08:20:10;15.90;;;11.05;;
68792;SDS011;55778;54.346;10.210;2023-07-29T08:22:36;13.82;;;9.25;;
68792;SDS011;55778;54.346;10.210;2023-07-29T08:25:01;13.43;;;8.88;;
68792;SDS011;55778;54.346;10.210;2023-07-29T08:27:27;13.77;;;8.75;;
68792;SDS011;55778;54.346;10.210;2023-07-29T08:29:53;13.48;;;8.07;;
68792;SDS011;55778;54.346;10.210;2023-07-29T08:32:19;12.23;;;7.75;;
68792;SDS011;55778;54.346;10.210;2023-07-29T08:34:44;10.30;;;7.60;;
68792;SDS011;55778;54.346;10.210;2023-07-29T08:37:09;10.73;;;7.70;;
68792;SDS011;55778;54.346;10.210;2023-07-29T08:39:35;12.38;;;8.00;;
68792;SDS011;55778;54.346;10.210;2023-07-29T08:42:01;11.05;;;7.43;;
68792;SDS011;55778;54.346;10.210;2023-07-29T08:44:35;10.38;;;7.25;;
68792;SDS011;55778;54.346;10.210;2023-07-29T08:47:05;11.13;;;6.93;;
68792;SDS011;55778;54.346;10.210;2023-07-29T08:49:30;9.15;;;6.30;;
68792;SDS011;55778;54.346;10.210;2023-07-29T08:51:57;9.60;;;6.55;;
68792;SDS011;55778;54.346;10.210;2023-07-29T08:54:23;11.38;;;6.45;;
68792;SDS011;55778;54.346;10.210;2023-07-29T08:56:48;7.97;;;5.80;;
68792;SDS011;55778;54.346;10.210;2023-07-29T08:59:15;8.98;;;5.75;;
68792;SDS011;55778;54.346;10.210;2023-07-29T09:01:42;7.95;;;5.47;;
68792;SDS011;55778;54.346;10.210;2023-07-29T09:04:08;8.07;;;5.65;;
68792;SDS011;55778;54.346;10.210;2023-07-29T09:06:34;8.20;;;5.47;;
68792;SDS011;55778;54.346;10.210;2023-07-29T09:09:01;7.88;;;5.75;;
68792;SDS011;55778;54.346;10.210;2023-07-29T09:11:27;7.65;;;5.00;;
68792;SDS011;55778;54.346;10.210;2023-07-29T09:13:53;6.25;;;4.82;;
68792;SDS011;55778;54.346;10.210;2023-07-29T09:16:22;7.25;;;5.38;;
68792;SDS011;55778;54.346;10.210;2023-07-29T09:21:15;10.10;;;5.30;;
68792;SDS011;55778;54.346;10.210;2023-07-29T09:23:43;9.57;;;5.10;;
68792;SDS011;55778;54.346;10.210;2023-07-29T09:26:09;10.00;;;5.20;;
68792;SDS011;55778;54.346;10.210;2023-07-29T09:28:36;7.80;;;4.85;;
68792;SDS011;55778;54.346;10.210;2023-07-29T09:31:03;7.63;;;4.80;;
68792;SDS011;55778;54.346;10.210;2023-07-29T09:33:29;7.63;;;4.90;;
68792;SDS011;55778;54.346;10.210;2023-07-29T09:36:01;6.05;;;4.55;;
68792;SDS011;55778;54.346;10.210;2023-07-29T09:38:27;5.50;;;3.80;;
68792;SDS011;55778;54.346;10.210;2023-07-29T09:40:54;5.15;;;4.15;;
68792;SDS011;55778;54.346;10.210;2023-07-29T09:43:24;6.38;;;3.95;;
68792;SDS011;55778;54.346;10.210;2023-07-29T09:45:51;5.75;;;4.05;;
68792;SDS011;55778;54.346;10.210;2023-07-29T09:48:17;6.43;;;4.22;;
68792;SDS011;55778;54.346;10.210;2023-07-29T09:50:47;6.03;;;4.32;;
68792;SDS011;55778;54.346;10.210;2023-07-29T09:53:13;5.85;;;4.40;;
68792;SDS011;55778;54.346;10.210;2023-07-29T09:55:39;6.88;;;4.10;;
68792;SDS011;55778;54.346;10.210;2023-07-29T09:58:04;7.43;;;4.40;;
68792;SDS011;55778;54.346;10.210;2023-07-29T10:00:33;5.90;;;5.13;;
68792;SDS011;55778;54.346;10.210;2023-07-29T10:02:59;7.05;;;4.70;;
68792;SDS011;55778;54.346;10.210;2023-07-29T10:05:25;6.50;;;4.57;;
68792;SDS011;55778;54.346;10.210;2023-07-29T10:07:51;6.32;;;4.07;;
68792;SDS011;55778;54.346;10.210;2023-07-29T10:10:19;4.38;;;3.60;;
68792;SDS011;55778;54.346;10.210;2023-07-29T10:12:45;4.38;;;3.45;;
68792;SDS011;55778;54.346;10.210;2023-07-29T10:15:11;4.10;;;3.40;;
68792;SDS011;55778;54.346;10.210;2023-07-29T10:17:37;4.50;;;3.38;;
68792;SDS011;55778;54.346;10.210;2023-07-29T10:20:04;3.22;;;2.90;;
68792;SDS011;55778;54.346;10.210;2023-07-29T10:22:38;3.40;;;2.65;;
68792;SDS011;55778;54.346;10.210;2023-07-29T10:25:09;4.10;;;2.80;;
68792;SDS011;55778;54.346;10.210;2023-07-29T10:27:43;5.63;;;2.97;;
68792;SDS011;55778;54.346;10.210;2023-07-29T10:30:12;5.18;;;3.17;;
68792;SDS011;55778;54.346;10.210;2023-07-29T10:32:44;3.95;;;2.80;;
68792;SDS011;55778;54.346;10.210;2023-07-29T10:35:11;5.25;;;3.40;;
68792;SDS011;55778;54.346;10.210;2023-07-29T10:37:37;4.25;;;3.17;;
68792;SDS011;55778;54.346;10.210;2023-07-29T10:40:05;3.70;;;3.28;;
68792;SDS011;55778;54.346;10.210;2023-07-29T10:42:35;4.90;;;3.13;;
68792;SDS011;55778;54.346;10.210;2023-07-29T10:45:16;3.35;;;3.05;;
68792;SDS011;55778;54.346;10.210;2023-07-29T10:47:43;3.42;;;2.90;;
68792;SDS011;55778;54.346;10.210;2023-07-29T10:50:16;5.03;;;2.60;;
68792;SDS011;55778;54.346;10.210;2023-07-29T10:52:43;3.60;;;2.30;;
68792;SDS011;55778;54.346;10.210;2023-07-29T10:55:23;4.25;;;2.50;;
68792;SDS011;55778;54.346;10.210;2023-07-29T10:57:51;4.65;;;2.50;;
68792;SDS011;55778;54.346;10.210;2023-07-29T11:00:18;3.65;;;2.10;;
68792;SDS011;55778;54.346;10.210;2023-07-29T11:02:56;2.40;;;2.20;;
68792;SDS011;55778;54.346;10.210;2023-07-29T11:05:25;3.40;;;2.22;;
68792;SDS011;55778;54.346;10.210;2023-07-29T11:07:51;2.30;;;2.03;;
68792;SDS011;55778;54.346;10.210;2023-07-29T11:10:16;2.17;;;1.90;;
68792;SDS011;55778;54.346;10.210;2023-07-29T11:12:48;2.97;;;1.60;;
68792;SDS011;55778;54.346;10.210;2023-07-29T11:15:26;2.47;;;1.73;;
68792;SDS011;55778;54.346;10.210;2023-07-29T11:17:56;1.85;;;1.65;;
68792;SDS011;55778;54.346;10.210;2023-07-29T11:20:24;2.03;;;1.70;;
68792;SDS011;55778;54.346;10.210;2023-07-29T11:22:54;2.80;;;1.60;;
68792;SDS011;55778;54.346;10.210;2023-07-29T11:25:22;2.83;;;1.80;;
68792;SDS011;55778;54.346;10.210;2023-07-29T11:27:48;2.20;;;2.00;;
68792;SDS011;55778;54.346;10.210;2023-07-29T11:30:16;2.70;;;2.10;;
68792;SDS011;55778;54.346;10.210;2023-07-29T11:32:42;2.60;;;1.80;;
68792;SDS011;55778;54.346;10.210;2023-07-29T11:35:10;2.67;;;2.10;;
68792;SDS011;55778;54.346;10.210;2023-07-29T11:37:41;2.47;;;2.00;;
68792;SDS011;55778;54.346;10.210;2023-07-29T11:40:09;2.72;;;1.75;;
68792;SDS011;55778;54.346;10.210;2023-07-29T11:42:38;2.13;;;1.73;;
68792;SDS011;55778;54.346;10.210;2023-07-29T11:45:04;1.98;;;1.70;;
68792;SDS011;55778;54.346;10.210;2023-07-29T11:47:33;2.90;;;1.70;;
68792;SDS011;55778;54.346;10.210;2023-07-29T11:52:35;3.35;;;1.77;;
68792;SDS011;55778;54.346;10.210;2023-07-29T11:55:04;2.10;;;1.70;;
68792;SDS011;55778;54.346;10.210;2023-07-29T11:57:30;2.60;;;1.75;;
68792;SDS011;55778;54.346;10.210;2023-07-29T11:59:58;2.60;;;1.90;;
68792;SDS011;55778;54.346;10.210;2023-07-29T12:02:24;2.15;;;1.67;;
68792;SDS011;55778;54.346;10.210;2023-07-29T12:04:50;3.35;;;1.80;;
68792;SDS011;55778;54.346;10.210;2023-07-29T12:07:17;4.00;;;1.95;;
68792;SDS011;55778;54.346;10.210;2023-07-29T12:09:43;2.38;;;1.70;;
68792;SDS011;55778;54.346;10.210;2023-07-29T12:12:10;3.33;;;1.77;;
68792;SDS011;55778;54.346;10.210;2023-07-29T12:14:35;1.70;;;1.55;;
68792;SDS011;55778;54.346;10.210;2023-07-29T12:17:01;3.60;;;1.70;;
68792;SDS011;55778;54.346;10.210;2023-07-29T12:19:32;1.55;;;1.45;;
68792;SDS011;55778;54.346;10.210;2023-07-29T12:21:59;2.85;;;1.70;;
68792;SDS011;55778;54.346;10.210;2023-07-29T12:24:24;2.00;;;1.30;;
68792;SDS011;55778;54.346;10.210;2023-07-29T12:26:50;1.60;;;1.40;;
68792;SDS011;55778;54.346;10.210;2023-07-29T12:29:17;1.90;;;1.50;;
68792;SDS011;55778;54.346;10.210;2023-07-29T12:31:47;1.58;;;1.25;;
68792;SDS011;55778;54.346;10.210;2023-07-29T12:34:19;1.73;;;1.45;;
68792;SDS011;55778;54.346;10.210;2023-07-29T12:36:48;1.50;;;1.30;;
68792;SDS011;55778;54.346;10.210;2023-07-29T12:39:22;1.90;;;1.38;;
68792;SDS011;55778;54.346;10.210;2023-07-29T12:41:56;1.65;;;1.50;;
68792;SDS011;55778;54.346;10.210;2023-07-29T12:44:29;3.30;;;1.40;;
68792;SDS011;55778;54.346;10.210;2023-07-29T12:46:56;2.22;;;1.20;;
68792;SDS011;55778;54.346;10.210;2023-07-29T12:49:21;1.50;;;1.35;;
68792;SDS011;55778;54.346;10.210;2023-07-29T12:51:47;1.90;;;1.40;;
68792;SDS011;55778;54.346;10.210;2023-07-29T12:54:13;2.72;;;1.50;;
68792;SDS011;55778;54.346;10.210;2023-07-29T12:56:38;2.35;;;1.63;;
68792;SDS011;55778;54.346;10.210;2023-07-29T12:59:04;2.20;;;1.60;;
68792;SDS011;55778;54.346;10.210;2023-07-29T13:01:30;1.75;;;1.35;;
68792;SDS011;55778;54.346;10.210;2023-07-29T13:03:55;2.10;;;1.58;;
68792;SDS011;55778;54.346;10.210;2023-07-29T13:06:21;1.83;;;1.55;;
68792;SDS011;55778;54.346;10.210;2023-07-29T13:08:47;2.15;;;1.60;;
68792;SDS011;55778;54.346;10.210;2023-07-29T13:11:13;2.10;;;1.75;;
68792;SDS011;55778;54.346;10.210;2023-07-29T13:13:39;2.40;;;1.80;;
68792;SDS011;55778;54.346;10.210;2023-07-29T13:16:04;2.63;;;1.90;;
68792;SDS011;55778;54.346;10.210;2023-07-29T13:18:31;2.80;;;1.95;;
68792;SDS011;55778;54.346;10.210;2023-07-29T13:20:57;3.15;;;2.10;;
68792;SDS011;55778;54.346;10.210;2023-07-29T13:23:22;3.83;;;2.22;;
68792;SDS011;55778;54.346;10.210;2023-07-29T13:25:48;2.72;;;2.30;;
68792;SDS011;55778;54.346;10.210;2023-07-29T13:28:13;3.15;;;2.58;;
68792;SDS011;55778;54.346;10.210;2023-07-29T13:30:42;3.78;;;2.58;;
68792;SDS011;55778;54.346;10.210;2023-07-29T13:33:07;3.95;;;2.60;;
68792;SDS011;55778;54.346;10.210;2023-07-29T13:35:33;3.90;;;2.40;;
68792;SDS011;55778;54.346;10.210;2023-07-29T13:37:59;3.20;;;2.53;;
68792;SDS011;55778;54.346;10.210;2023-07-29T13:40:25;2.45;;;2.08;;
68792;SDS011;55778;54.346;10.210;2023-07-29T13:42:50;2.55;;;1.80;;
68792;SDS011;55778;54.346;10.210;2023-07-29T13:45:16;2.47;;;1.80;;
68792;SDS011;55778;54.346;10.210;2023-07-29T13:47:42;3.80;;;1.90;;
68792;SDS011;55778;54.346;10.210;2023-07-29T13:50:07;2.58;;;1.85;;
68792;SDS011;55778;54.346;10.210;2023-07-29T13:52:33;3.55;;;1.70;;
68792;SDS011;55778;54.346;10.210;2023-07-29T13:54:58;2.97;;;1.95;;
68792;SDS011;55778;54.346;10.210;2023-07-29T13:57:24;3.15;;;1.90;;
68792;SDS011;55778;54.346;10.210;2023-07-29T13:59:49;3.83;;;1.90;;
68792;SDS011;55778;54.346;10.210;2023-07-29T14:02:14;2.72;;;1.65;;
68792;SDS011;55778;54.346;10.210;2023-07-29T14:04:40;2.60;;;1.90;;
68792;SDS011;55778;54.346;10.210;2023-07-29T14:07:05;2.65;;;1.80;;
68792;SDS011;55778;54.346;10.210;2023-07-29T14:09:31;3.05;;;1.80;;
68792;SDS011;55778;54.346;10.210;2023-07-29T14:11:56;3.47;;;1.88;;
68792;SDS011;55778;54.346;10.210;2023-07-29T14:14:21;2.05;;;1.63;;
68792;SDS011;55778;54.346;10.210;2023-07-29T14:16:47;3.58;;;1.95;;
68792;SDS011;55778;54.346;10.210;2023-07-29T14:19:12;4.47;;;1.95;;
68792;SDS011;55778;54.346;10.210;2023-07-29T14:21:38;3.60;;;1.98;;
68792;SDS011;55778;54.346;10.210;2023-07-29T14:24:04;2.90;;;2.00;;
68792;SDS011;55778;54.346;10.210;2023-07-29T14:26:30;2.92;;;1.75;;
68792;SDS011;55778;54.346;10.210;2023-07-29T14:28:55;2.80;;;1.88;;
68792;SDS011;55778;54.346;10.210;2023-07-29T14:31:21;3.50;;;1.90;;
68792;SDS011;55778;54.346;10.210;2023-07-29T14:33:47;3.92;;;1.98;;
68792;SDS011;55778;54.346;10.210;2023-07-29T14:36:14;2.92;;;1.70;;
68792;SDS011;55778;54.346;10.210;2023-07-29T14:38:39;3.85;;;1.70;;
68792;SDS011;55778;54.346;10.210;2023-07-29T14:41:05;3.63;;;2.15;;
68792;SDS011;55778;54.346;10.210;2023-07-29T14:43:30;3.50;;;1.80;;